Time;durP1;ratioP1;P1;durP2;ratioP2;P2;SDS_P1;SDS_P2;PMS_P1;PMS_P2;Temp;Humidity;BMP_temperature;BMP_pressure;BME280_temperature;BME280_humidity;BME280_pressure;Samples;Min_cycle;Max_cycle;Signal;HPM_P1;HPM_P2
2021/03/19 00:02:04;;;;;;;4.68;3.30;;;;;;;;;;5084053;28;20049;-66
2021/03/19 00:04:30;;;;;;;4.97;3.65;;;;;;;;;;5084848;28;20097;-66
2021/03/19 00:06:55;;;;;;;5.22;3.80;;;;;;;;;;5084042;28;20056;-67
2021/03/19 00:09:21;;;;;;;5.40;3.60;;;;;;;;;;5083744;28;20414;-67
2021/03/19 00:11:47;;;;;;;5.47;3.67;;;;;;;;;;5083872;28;20040;-67
2021/03/19 00:14:12;;;;;;;4.68;3.55;;;;;;;;;;5083554;28;20045;-67
2021/03/19 00:16:38;;;;;;;5.97;3.92;;;;;;;;;;5082037;28;20130;-67
2021/03/19 00:19:04;;;;;;;6.00;3.95;;;;;;;;;;5083941;28;20091;-67
2021/03/19 00:21:29;;;;;;;5.95;3.90;;;;;;;;;;5083899;28;20204;-67
2021/03/19 00:23:55;;;;;;;6.78;4.05;;;;;;;;;;5083904;28;20057;-67
2021/03/19 00:26:21;;;;;;;5.60;3.63;;;;;;;;;;5071721;28;20055;-67
2021/03/19 00:28:46;;;;;;;6.55;4.03;;;;;;;;;;5083535;28;20103;-67
2021/03/19 00:31:12;;;;;;;5.95;3.83;;;;;;;;;;5083697;28;20045;-67
2021/03/19 00:33:37;;;;;;;5.65;3.80;;;;;;;;;;5083335;28;20040;-67
2021/03/19 00:36:03;;;;;;;5.68;4.00;;;;;;;;;;5083592;28;20548;-67
2021/03/19 00:38:28;;;;;;;6.10;4.15;;;;;;;;;;5083342;28;20123;-68
2021/03/19 00:40:54;;;;;;;5.60;4.10;;;;;;;;;;5083096;28;20043;-69
2021/03/19 00:43:19;;;;;;;5.72;3.92;;;;;;;;;;5081639;28;20044;-67
2021/03/19 00:45:45;;;;;;;5.25;3.80;;;;;;;;;;5083624;28;20072;-67
2021/03/19 00:48:11;;;;;;;7.32;3.83;;;;;;;;;;5056177;28;20089;-68
2021/03/19 00:50:39;;;;;;;4.63;3.47;;;;;;;;;;5083218;28;20142;-68
2021/03/19 00:53:05;;;;;;;5.50;3.53;;;;;;;;;;5083010;28;20103;-67
2021/03/19 00:55:30;;;;;;;4.47;3.47;;;;;;;;;;5058720;28;20486;-67
2021/03/19 00:57:56;;;;;;;5.35;3.65;;;;;;;;;;5083490;28;20053;-68
2021/03/19 01:00:22;;;;;;;5.68;3.88;;;;;;;;;;5080236;28;20040;-68
2021/03/19 01:02:48;;;;;;;6.05;3.70;;;;;;;;;;5086711;28;20128;-68
2021/03/19 01:05:43;;;;;;;5.47;3.83;;;;;;;;;;5086141;28;20786;-68
2021/03/19 01:08:09;;;;;;;6.20;4.22;;;;;;;;;;5075660;28;20056;-68
2021/03/19 01:10:44;;;;;;;6.25;3.92;;;;;;;;;;5086518;28;20044;-68
2021/03/19 01:13:10;;;;;;;4.50;3.33;;;;;;;;;;5086761;28;20036;-68
2021/03/19 01:15:35;;;;;;;6.50;4.20;;;;;;;;;;5086062;28;20040;-68
2021/03/19 01:18:01;;;;;;;5.18;3.83;;;;;;;;;;5086088;28;20044;-68
2021/03/19 01:20:28;;;;;;;5.97;3.88;;;;;;;;;;5086504;28;20101;-67
2021/03/19 01:22:53;;;;;;;6.82;4.30;;;;;;;;;;5086115;28;20093;-67
2021/03/19 01:25:19;;;;;;;6.30;4.22;;;;;;;;;;5077833;28;20633;-67
2021/03/19 01:27:45;;;;;;;6.15;4.28;;;;;;;;;;5085923;28;20999;-66
2021/03/19 01:30:16;;;;;;;6.20;4.05;;;;;;;;;;5086181;28;20091;-67
2021/03/19 01:32:41;;;;;;;5.88;4.15;;;;;;;;;;5077836;28;20044;-67
2021/03/19 01:35:07;;;;;;;6.07;4.35;;;;;;;;;;5086106;28;20490;-67
2021/03/19 01:37:33;;;;;;;5.15;3.85;;;;;;;;;;5085992;28;20807;-66
2021/03/19 01:39:58;;;;;;;7.25;4.70;;;;;;;;;;5086352;28;20063;-66
2021/03/19 01:42:24;;;;;;;6.43;4.18;;;;;;;;;;5078026;28;20160;-66
2021/03/19 01:45:07;;;;;;;6.30;4.20;;;;;;;;;;5086155;28;20406;-67
2021/03/19 01:48:11;;;;;;;6.32;4.38;;;;;;;;;;5084139;28;20099;-67
2021/03/19 01:51:17;;;;;;;6.70;4.50;;;;;;;;;;5085709;28;20152;-66
2021/03/19 01:54:20;;;;;;;7.18;4.78;;;;;;;;;;5085384;28;20064;-67
2021/03/19 01:57:23;;;;;;;5.60;4.13;;;;;;;;;;5085692;28;20823;-66
2021/03/19 02:00:26;;;;;;;7.95;5.35;;;;;;;;;;5086182;28;20565;-66
2021/03/19 02:03:29;;;;;;;7.07;4.63;;;;;;;;;;5084079;28;20044;-67
2021/03/19 02:06:32;;;;;;;7.68;4.78;;;;;;;;;;5085705;28;20044;-65
2021/03/19 02:09:35;;;;;;;8.43;4.88;;;;;;;;;;5085838;28;20068;-67
2021/03/19 02:12:38;;;;;;;6.78;5.07;;;;;;;;;;5085858;28;20517;-65
2021/03/19 02:15:40;;;;;;;7.75;4.97;;;;;;;;;;5067785;28;20132;-66
2021/03/19 02:18:43;;;;;;;6.32;4.65;;;;;;;;;;5086191;28;20036;-66
2021/03/19 02:21:46;;;;;;;8.48;5.20;;;;;;;;;;5086161;28;20134;-65
2021/03/19 02:24:49;;;;;;;7.72;5.13;;;;;;;;;;5086415;28;21186;-67
2021/03/19 02:27:51;;;;;;;7.35;5.15;;;;;;;;;;5085495;28;20079;-67
2021/03/19 02:30:54;;;;;;;6.78;5.10;;;;;;;;;;5086420;28;20482;-67
2021/03/19 02:33:20;;;;;;;7.55;5.05;;;;;;;;;;5085918;28;20045;-66
2021/03/19 02:35:57;;;;;;;8.25;5.50;;;;;;;;;;5085864;28;20491;-65
2021/03/19 02:38:23;;;;;;;7.07;4.95;;;;;;;;;;5077943;28;20052;-66
2021/03/19 02:40:48;;;;;;;7.43;5.35;;;;;;;;;;5085320;28;20048;-67
2021/03/19 02:43:17;;;;;;;7.57;4.93;;;;;;;;;;5085899;28;20164;-66
2021/03/19 02:45:48;;;;;;;7.50;5.20;;;;;;;;;;5078586;28;20048;-68
2021/03/19 02:48:14;;;;;;;7.43;5.20;;;;;;;;;;5087290;28;20533;-67
2021/03/19 02:50:40;;;;;;;7.35;5.15;;;;;;;;;;5069670;28;20278;-67
2021/03/19 02:53:14;;;;;;;8.00;5.30;;;;;;;;;;5087428;28;20052;-68
2021/03/19 02:55:48;;;;;;;6.47;4.93;;;;;;;;;;5085782;28;20050;-67
2021/03/19 02:58:13;;;;;;;8.15;5.43;;;;;;;;;;5067351;28;20139;-67
2021/03/19 03:00:41;;;;;;;7.63;5.40;;;;;;;;;;5100655;28;20052;-67
2021/03/19 03:03:07;;;;;;;8.57;5.88;;;;;;;;;;5085126;28;20049;-67
2021/03/19 03:05:32;;;;;;;7.90;5.20;;;;;;;;;;5085008;28;20048;-68
2021/03/19 03:07:58;;;;;;;8.30;5.60;;;;;;;;;;5084797;28;20555;-68
2021/03/19 03:10:24;;;;;;;7.55;5.32;;;;;;;;;;5076961;28;20049;-66
2021/03/19 03:12:50;;;;;;;8.07;5.60;;;;;;;;;;5066839;28;20167;-66
2021/03/19 03:15:16;;;;;;;7.80;5.43;;;;;;;;;;5073960;28;20086;-68
2021/03/19 03:17:42;;;;;;;8.35;5.93;;;;;;;;;;5082593;28;20076;-68
2021/03/19 03:20:14;;;;;;;7.30;5.30;;;;;;;;;;5075217;28;20044;-67
2021/03/19 03:22:41;;;;;;;8.15;5.32;;;;;;;;;;5076105;28;20040;-68
2021/03/19 03:25:07;;;;;;;7.35;5.20;;;;;;;;;;5084721;28;20087;-66
2021/03/19 03:27:32;;;;;;;7.68;5.22;;;;;;;;;;5084886;28;20068;-68
2021/03/19 03:29:58;;;;;;;7.30;4.88;;;;;;;;;;5084277;28;20044;-66
2021/03/19 03:32:24;;;;;;;7.88;5.55;;;;;;;;;;5084403;28;20048;-67
2021/03/19 03:34:49;;;;;;;7.50;5.40;;;;;;;;;;5059996;28;20491;-68
2021/03/19 03:37:14;;;;;;;7.20;5.22;;;;;;;;;;5084050;28;20055;-68
2021/03/19 03:39:40;;;;;;;7.57;5.10;;;;;;;;;;5084037;28;20698;-67
2021/03/19 03:42:05;;;;;;;8.35;5.55;;;;;;;;;;5076880;28;20043;-68
2021/03/19 03:44:31;;;;;;;7.75;5.30;;;;;;;;;;5084318;28;20745;-67
2021/03/19 03:46:57;;;;;;;8.73;5.32;;;;;;;;;;5082850;28;20059;-66
2021/03/19 03:49:22;;;;;;;7.20;4.80;;;;;;;;;;5077474;28;20048;-66
2021/03/19 03:51:48;;;;;;;7.97;5.38;;;;;;;;;;5058908;28;20044;-67
2021/03/19 03:54:14;;;;;;;8.30;5.63;;;;;;;;;;5083179;28;20071;-68
2021/03/19 03:56:39;;;;;;;8.32;5.72;;;;;;;;;;5073047;28;20060;-68
2021/03/19 03:59:06;;;;;;;7.70;5.18;;;;;;;;;;5082728;28;20052;-67
2021/03/19 04:01:32;;;;;;;7.82;5.00;;;;;;;;;;5082674;28;20051;-67
2021/03/19 04:03:58;;;;;;;7.70;5.05;;;;;;;;;;5082543;28;20052;-67
2021/03/19 04:06:23;;;;;;;8.30;5.10;;;;;;;;;;5084155;28;20036;-67
2021/03/19 04:08:49;;;;;;;8.38;5.38;;;;;;;;;;5083869;28;20441;-68
2021/03/19 04:11:16;;;;;;;7.70;5.35;;;;;;;;;;5083918;28;20552;-68
2021/03/19 04:13:42;;;;;;;7.22;5.07;;;;;;;;;;5082180;28;20048;-68
2021/03/19 04:16:07;;;;;;;8.25;5.50;;;;;;;;;;5059798;28;20503;-67
2021/03/19 04:18:33;;;;;;;7.88;4.95;;;;;;;;;;5083890;28;20040;-67
2021/03/19 04:21:00;;;;;;;7.85;5.25;;;;;;;;;;5083451;28;20055;-67
2021/03/19 04:23:30;;;;;;;9.40;5.45;;;;;;;;;;5083443;28;20037;-68
2021/03/19 04:25:56;;;;;;;9.05;5.53;;;;;;;;;;5083737;28;20045;-70
2021/03/19 04:28:24;;;;;;;8.50;5.30;;;;;;;;;;5082321;28;20636;-68
2021/03/19 04:30:49;;;;;;;8.40;5.78;;;;;;;;;;5083560;28;20941;-67
2021/03/19 04:33:18;;;;;;;8.55;5.47;;;;;;;;;;5059423;28;20041;-68
2021/03/19 04:35:43;;;;;;;8.43;5.60;;;;;;;;;;5078544;28;20040;-68
2021/03/19 04:38:11;;;;;;;7.15;5.38;;;;;;;;;;5079317;28;20060;-66
2021/03/19 04:40:38;;;;;;;8.45;5.90;;;;;;;;;;5078189;28;20036;-67
2021/03/19 04:43:04;;;;;;;8.57;5.38;;;;;;;;;;5061628;28;20131;-66
2021/03/19 04:45:29;;;;;;;7.90;5.38;;;;;;;;;;5085402;28;20051;-66
2021/03/19 04:47:58;;;;;;;8.55;5.80;;;;;;;;;;5086510;28;20045;-66
2021/03/19 04:50:23;;;;;;;8.07;5.50;;;;;;;;;;5079373;28;20129;-67
2021/03/19 04:52:49;;;;;;;7.53;5.15;;;;;;;;;;5079640;28;20834;-68
2021/03/19 04:55:15;;;;;;;7.20;5.00;;;;;;;;;;5086548;28;20490;-68
2021/03/19 04:57:40;;;;;;;7.38;4.97;;;;;;;;;;5080758;28;20090;-67
2021/03/19 05:00:07;;;;;;;7.13;5.00;;;;;;;;;;5086871;28;20048;-67
2021/03/19 05:02:33;;;;;;;7.60;4.90;;;;;;;;;;5077600;28;20060;-67
2021/03/19 05:04:58;;;;;;;8.00;5.03;;;;;;;;;;5078209;28;20113;-67
2021/03/19 05:07:24;;;;;;;6.78;4.40;;;;;;;;;;5078389;28;20098;-67
2021/03/19 05:09:49;;;;;;;7.47;4.75;;;;;;;;;;5079209;28;20048;-67
2021/03/19 05:12:15;;;;;;;8.57;5.22;;;;;;;;;;5087331;28;20052;-66
2021/03/19 05:14:40;;;;;;;7.28;4.75;;;;;;;;;;5087812;28;20198;-67
2021/03/19 05:17:06;;;;;;;8.00;4.95;;;;;;;;;;5085965;28;20051;-66
2021/03/19 05:19:31;;;;;;;7.57;4.88;;;;;;;;;;5086899;28;20051;-66
2021/03/19 05:21:58;;;;;;;7.70;4.75;;;;;;;;;;5085698;28;20487;-66
2021/03/19 05:24:24;;;;;;;8.48;4.80;;;;;;;;;;5083650;28;20151;-67
2021/03/19 05:26:49;;;;;;;7.50;4.90;;;;;;;;;;5084874;28;20861;-65
2021/03/19 05:29:17;;;;;;;6.53;4.20;;;;;;;;;;5085836;28;20407;-66
2021/03/19 05:31:42;;;;;;;7.78;5.15;;;;;;;;;;5087227;28;20044;-66
2021/03/19 05:34:09;;;;;;;7.13;4.55;;;;;;;;;;5078132;28;20036;-66
2021/03/19 05:36:35;;;;;;;7.63;4.72;;;;;;;;;;5085727;28;20055;-67
2021/03/19 05:39:00;;;;;;;6.15;4.25;;;;;;;;;;5086557;28;20390;-66
2021/03/19 05:41:27;;;;;;;8.05;4.75;;;;;;;;;;5086401;28;20179;-66
2021/03/19 05:44:28;;;;;;;6.43;4.22;;;;;;;;;;5084679;28;20093;-66
2021/03/19 05:46:59;;;;;;;6.63;4.40;;;;;;;;;;5075364;28;20059;-66
2021/03/19 05:49:26;;;;;;;6.38;4.55;;;;;;;;;;5049979;28;20040;-65
2021/03/19 05:51:56;;;;;;;6.15;4.05;;;;;;;;;;5084538;28;20076;-66
2021/03/19 05:54:30;;;;;;;6.13;4.10;;;;;;;;;;5084569;28;20079;-65
2021/03/19 05:57:03;;;;;;;8.30;4.60;;;;;;;;;;5083837;28;20490;-66
2021/03/19 05:59:32;;;;;;;6.35;4.07;;;;;;;;;;5085595;28;20048;-66
2021/03/19 06:01:57;;;;;;;6.75;4.18;;;;;;;;;;5073670;28;20680;-66
2021/03/19 06:04:29;;;;;;;7.25;4.57;;;;;;;;;;5084622;28;20044;-65
2021/03/19 06:07:00;;;;;;;5.95;4.30;;;;;;;;;;5072870;28;20044;-66
2021/03/19 06:09:30;;;;;;;6.82;4.10;;;;;;;;;;5057201;28;20076;-66
2021/03/19 06:11:58;;;;;;;5.90;4.10;;;;;;;;;;5084135;28;20044;-66
2021/03/19 06:14:23;;;;;;;6.13;4.03;;;;;;;;;;5083659;28;20238;-67
2021/03/19 06:16:50;;;;;;;7.18;3.92;;;;;;;;;;5082767;28;20049;-67
2021/03/19 06:19:47;;;;;;;6.03;3.92;;;;;;;;;;5059008;28;20131;-67
2021/03/19 06:22:21;;;;;;;5.53;3.60;;;;;;;;;;5084560;28;20052;-67
2021/03/19 06:25:10;;;;;;;5.18;3.35;;;;;;;;;;5084715;28;20048;-67
2021/03/19 06:27:39;;;;;;;6.28;4.05;;;;;;;;;;5069195;28;20044;-66
2021/03/19 06:30:29;;;;;;;4.47;3.25;;;;;;;;;;5059324;28;20056;-66
2021/03/19 06:33:13;;;;;;;5.55;3.55;;;;;;;;;;5076724;28;20084;-66
2021/03/19 06:35:44;;;;;;;5.07;3.20;;;;;;;;;;5084007;28;20045;-67
2021/03/19 06:38:42;;;;;;;5.45;3.13;;;;;;;;;;5083633;28;20055;-68
2021/03/19 06:41:34;;;;;;;5.57;3.30;;;;;;;;;;5082390;28;20643;-68
2021/03/19 06:44:18;;;;;;;6.10;3.42;;;;;;;;;;5079315;28;20083;-67
2021/03/19 06:46:48;;;;;;;5.80;3.53;;;;;;;;;;5083804;28;20056;-67
2021/03/19 06:49:14;;;;;;;5.90;3.47;;;;;;;;;;5084191;28;20041;-68
2021/03/19 06:51:44;;;;;;;4.90;3.20;;;;;;;;;;5084869;28;20500;-67
2021/03/19 06:54:18;;;;;;;4.93;3.22;;;;;;;;;;5083977;28;20539;-68
2021/03/19 06:57:05;;;;;;;5.55;3.40;;;;;;;;;;5070135;28;20044;-68
2021/03/19 06:59:49;;;;;;;5.50;3.42;;;;;;;;;;5084861;28;20048;-67
2021/03/19 07:02:49;;;;;;;4.80;3.20;;;;;;;;;;5076407;28;20509;-68
2021/03/19 07:05:33;;;;;;;4.88;3.30;;;;;;;;;;5084624;28;20049;-68
2021/03/19 07:08:24;;;;;;;5.13;3.40;;;;;;;;;;5066577;28;20036;-68
2021/03/19 07:11:16;;;;;;;4.45;3.20;;;;;;;;;;5076863;28;20040;-68
2021/03/19 07:14:06;;;;;;;4.65;3.10;;;;;;;;;;5077513;28;20048;-68
2021/03/19 07:16:31;;;;;;;4.70;3.40;;;;;;;;;;5077576;28;20103;-68
2021/03/19 07:19:15;;;;;;;5.22;3.67;;;;;;;;;;5084650;28;20044;-69
2021/03/19 07:21:56;;;;;;;4.10;3.00;;;;;;;;;;5084071;28;20036;-68
2021/03/19 07:25:01;;;;;;;4.70;3.47;;;;;;;;;;5083346;28;20388;-68
2021/03/19 07:27:53;;;;;;;6.40;3.22;;;;;;;;;;5083236;28;20155;-69
2021/03/19 07:30:39;;;;;;;5.10;3.42;;;;;;;;;;5083090;28;20048;-68
2021/03/19 07:33:13;;;;;;;5.78;3.80;;;;;;;;;;5083682;28;20820;-67
2021/03/19 07:36:06;;;;;;;5.75;3.65;;;;;;;;;;5082557;28;20625;-67
2021/03/19 07:39:00;;;;;;;5.13;3.40;;;;;;;;;;5061513;28;21046;-68
2021/03/19 07:41:58;;;;;;;5.03;3.47;;;;;;;;;;5067815;28;20044;-67
2021/03/19 07:44:27;;;;;;;6.10;3.75;;;;;;;;;;5080763;28;20057;-68
2021/03/19 07:46:58;;;;;;;5.05;3.55;;;;;;;;;;5075249;28;20071;-65
2021/03/19 07:49:37;;;;;;;5.18;3.70;;;;;;;;;;5084221;28;21010;-66
2021/03/19 07:52:21;;;;;;;6.07;3.58;;;;;;;;;;5083744;28;20045;-67
2021/03/19 07:54:58;;;;;;;6.22;3.42;;;;;;;;;;5085168;28;20044;-70
2021/03/19 07:57:25;;;;;;;5.20;3.45;;;;;;;;;;5081505;28;20055;-68
2021/03/19 08:00:03;;;;;;;5.35;3.58;;;;;;;;;;5084431;28;20078;-67
2021/03/19 08:02:44;;;;;;;6.35;3.80;;;;;;;;;;5084862;28;20103;-68
2021/03/19 08:05:36;;;;;;;5.55;3.53;;;;;;;;;;5084513;28;20044;-69
2021/03/19 08:08:08;;;;;;;6.68;4.00;;;;;;;;;;5084352;28;20048;-67
2021/03/19 08:10:41;;;;;;;5.03;3.60;;;;;;;;;;5087980;28;20123;-66
2021/03/19 08:13:28;;;;;;;5.03;3.40;;;;;;;;;;5081640;28;20059;-68
2021/03/19 08:16:16;;;;;;;4.68;3.47;;;;;;;;;;5087459;28;20044;-69
2021/03/19 08:18:53;;;;;;;5.53;3.63;;;;;;;;;;5088001;28;20044;-69
2021/03/19 08:21:31;;;;;;;5.47;3.63;;;;;;;;;;5070514;28;20047;-67
2021/03/19 08:24:23;;;;;;;6.15;3.78;;;;;;;;;;5079455;28;20044;-69
2021/03/19 08:27:02;;;;;;;5.63;3.80;;;;;;;;;;5085756;28;20056;-67
2021/03/19 08:29:57;;;;;;;4.85;3.15;;;;;;;;;;5085876;28;20040;-68
2021/03/19 08:32:30;;;;;;;5.38;3.28;;;;;;;;;;5055934;28;20060;-69
2021/03/19 08:35:08;;;;;;;5.25;3.22;;;;;;;;;;5085550;28;20114;-68
2021/03/19 08:37:46;;;;;;;5.70;3.00;;;;;;;;;;5086779;28;20049;-69
2021/03/19 08:40:48;;;;;;;5.03;3.28;;;;;;;;;;5069910;28;20214;-67
2021/03/19 08:43:29;;;;;;;5.82;3.25;;;;;;;;;;5087142;28;20048;-70
2021/03/19 08:46:26;;;;;;;4.85;3.20;;;;;;;;;;5062777;28;20783;-67
2021/03/19 08:48:57;;;;;;;5.70;3.40;;;;;;;;;;5064136;28;20602;-69
2021/03/19 08:51:29;;;;;;;4.28;2.70;;;;;;;;;;5068307;28;20040;-67
2021/03/19 08:54:13;;;;;;;4.03;2.85;;;;;;;;;;5087055;28;20047;-69
2021/03/19 08:56:47;;;;;;;4.32;2.80;;;;;;;;;;5079890;28;20164;-68
2021/03/19 08:59:49;;;;;;;4.20;2.70;;;;;;;;;;5067662;28;20644;-70
2021/03/19 09:02:17;;;;;;;3.58;2.35;;;;;;;;;;5041315;28;20561;-68
2021/03/19 09:04:52;;;;;;;3.65;2.67;;;;;;;;;;5085396;28;20048;-67
2021/03/19 09:07:28;;;;;;;4.30;2.40;;;;;;;;;;5085947;28;20049;-67
2021/03/19 09:10:16;;;;;;;4.78;2.65;;;;;;;;;;5086092;28;20059;-68
2021/03/19 09:12:57;;;;;;;3.55;2.40;;;;;;;;;;5074771;28;20053;-70
2021/03/19 09:15:22;;;;;;;2.72;1.92;;;;;;;;;;5086297;28;20048;-68
2021/03/19 09:17:52;;;;;;;3.38;2.35;;;;;;;;;;5084702;28;20048;-67
2021/03/19 09:20:26;;;;;;;2.95;2.13;;;;;;;;;;5085245;28;20933;-69
2021/03/19 09:23:20;;;;;;;4.15;2.42;;;;;;;;;;5085856;28;20051;-68
2021/03/19 09:25:55;;;;;;;3.67;1.88;;;;;;;;;;5062327;28;20064;-66
2021/03/19 09:28:57;;;;;;;3.08;2.00;;;;;;;;;;5084384;28;20051;-67
2021/03/19 09:31:25;;;;;;;3.17;1.77;;;;;;;;;;5085050;28;20528;-68
2021/03/19 09:33:50;;;;;;;3.78;1.92;;;;;;;;;;5086603;28;20876;-66
2021/03/19 09:36:54;;;;;;;2.55;1.90;;;;;;;;;;5086039;28;20048;-68
2021/03/19 09:39:44;;;;;;;2.33;1.50;;;;;;;;;;5084108;28;20056;-69
2021/03/19 09:42:33;;;;;;;3.65;1.90;;;;;;;;;;5085139;28;20048;-65
2021/03/19 09:45:19;;;;;;;3.03;1.73;;;;;;;;;;5085442;28;20045;-66
2021/03/19 09:48:16;;;;;;;2.53;1.50;;;;;;;;;;5083797;28;20135;-66
2021/03/19 09:50:53;;;;;;;3.10;1.90;;;;;;;;;;5083836;28;20064;-65
2021/03/19 09:53:19;;;;;;;2.80;1.60;;;;;;;;;;5060640;28;20045;-67
2021/03/19 09:55:52;;;;;;;3.38;1.85;;;;;;;;;;5086040;28;20049;-67
2021/03/19 09:58:18;;;;;;;3.00;2.00;;;;;;;;;;5085649;28;20068;-66
2021/03/19 10:00:56;;;;;;;3.25;1.83;;;;;;;;;;5083589;28;20384;-67
2021/03/19 10:03:22;;;;;;;2.15;1.60;;;;;;;;;;5065696;28;20036;-65
2021/03/19 10:05:47;;;;;;;2.47;1.52;;;;;;;;;;5085147;28;20032;-67
2021/03/19 10:08:30;;;;;;;1.85;1.38;;;;;;;;;;5074674;28;20052;-66
2021/03/19 10:11:05;;;;;;;;;;;;;;;;;;5083991;28;20097;-67
2021/03/19 10:13:31;;;;;;;3.13;1.75;;;;;;;;;;5076028;28;19920;-67
2021/03/19 10:15:56;;;;;;;2.30;1.52;;;;;;;;;;5083923;28;20044;-67
2021/03/19 10:18:43;;;;;;;2.25;1.10;;;;;;;;;;5076517;28;20478;-65
2021/03/19 10:21:18;;;;;;;2.45;1.20;;;;;;;;;;5083998;28;20049;-66
2021/03/19 10:23:53;;;;;;;2.33;1.15;;;;;;;;;;5081657;28;20044;-65
2021/03/19 10:26:19;;;;;;;1.95;1.10;;;;;;;;;;5076585;28;20044;-67
2021/03/19 10:28:53;;;;;;;1.90;1.10;;;;;;;;;;5083089;28;20182;-66
2021/03/19 10:31:23;;;;;;;1.83;1.10;;;;;;;;;;5083630;28;20091;-67
2021/03/19 10:33:59;;;;;;;1.98;1.13;;;;;;;;;;5057636;28;20040;-65
2021/03/19 10:36:49;;;;;;;2.15;1.00;;;;;;;;;;5084569;28;20057;-66
2021/03/19 10:39:31;;;;;;;1.90;1.20;;;;;;;;;;5084712;28;20510;-67
2021/03/19 10:42:03;;;;;;;2.17;1.10;;;;;;;;;;5083720;28;20558;-67
2021/03/19 10:44:32;;;;;;;2.00;1.27;;;;;;;;;;5074433;28;20446;-67
2021/03/19 10:47:27;;;;;;;1.50;1.15;;;;;;;;;;5065333;28;20465;-66
2021/03/19 10:49:56;;;;;;;1.67;0.93;;;;;;;;;;5065964;28;20053;-66
2021/03/19 10:52:36;;;;;;;1.45;0.90;;;;;;;;;;5075356;28;20537;-66
2021/03/19 10:55:15;;;;;;;1.77;0.80;;;;;;;;;;5072949;28;20043;-67
2021/03/19 10:57:41;;;;;;;1.95;0.90;;;;;;;;;;5079867;28;20075;-66
2021/03/19 11:00:33;;;;;;;1.50;0.93;;;;;;;;;;5084755;28;20086;-67
2021/03/19 11:03:00;;;;;;;1.10;0.77;;;;;;;;;;5084416;28;20933;-66
2021/03/19 11:05:26;;;;;;;1.70;0.77;;;;;;;;;;5059957;28;20047;-66
2021/03/19 11:07:52;;;;;;;0.98;0.70;;;;;;;;;;5084260;28;20133;-68
2021/03/19 11:10:25;;;;;;;1.75;0.77;;;;;;;;;;5075748;28;20502;-69
2021/03/19 11:12:58;;;;;;;1.60;0.75;;;;;;;;;;5078090;28;20084;-66
2021/03/19 11:15:23;;;;;;;1.73;0.70;;;;;;;;;;5083682;28;20048;-66
2021/03/19 11:18:21;;;;;;;0.80;0.70;;;;;;;;;;5085105;28;20414;-65
2021/03/19 11:20:57;;;;;;;2.22;0.65;;;;;;;;;;5083577;28;20585;-66
2021/03/19 11:23:36;;;;;;;0.57;0.50;;;;;;;;;;5076291;28;20043;-65
2021/03/19 11:26:26;;;;;;;1.60;0.90;;;;;;;;;;5084020;28;20045;-66
2021/03/19 11:29:08;;;;;;;0.65;0.60;;;;;;;;;;5082682;28;20056;-67
2021/03/19 11:31:34;;;;;;;0.70;0.60;;;;;;;;;;5084464;28;20555;-66
2021/03/19 11:34:01;;;;;;;0.77;0.60;;;;;;;;;;5082509;28;20048;-66
2021/03/19 11:36:58;;;;;;;0.65;0.50;;;;;;;;;;5065179;28;20121;-67
2021/03/19 11:39:43;;;;;;;0.93;0.45;;;;;;;;;;5062984;28;20556;-67
2021/03/19 11:42:11;;;;;;;0.45;0.40;;;;;;;;;;5049796;28;20036;-67
2021/03/19 11:44:37;;;;;;;0.57;0.50;;;;;;;;;;5082917;28;20074;-67
2021/03/19 11:47:22;;;;;;;0.90;0.57;;;;;;;;;;5082968;28;20059;-68
2021/03/19 11:49:49;;;;;;;0.73;0.50;;;;;;;;;;5083033;28;20045;-67
2021/03/19 11:52:15;;;;;;;1.08;0.50;;;;;;;;;;5076436;28;20475;-67
2021/03/19 11:54:41;;;;;;;0.75;0.60;;;;;;;;;;5076638;28;20544;-66
2021/03/19 11:57:07;;;;;;;0.47;0.40;;;;;;;;;;5083926;28;20040;-68
2021/03/19 11:59:32;;;;;;;1.02;0.57;;;;;;;;;;5084035;28;20804;-68
2021/03/19 12:01:59;;;;;;;1.50;0.50;;;;;;;;;;5084203;28;20051;-68
2021/03/19 12:04:25;;;;;;;0.40;0.40;;;;;;;;;;5082253;28;20047;-66
2021/03/19 12:06:51;;;;;;;0.60;0.40;;;;;;;;;;5081075;28;20106;-69
2021/03/19 12:09:17;;;;;;;0.70;0.50;;;;;;;;;;5081683;28;20044;-67
2021/03/19 12:11:43;;;;;;;0.50;0.50;;;;;;;;;;5082198;28;20460;-68
2021/03/19 12:14:21;;;;;;;0.30;0.30;;;;;;;;;;5064654;28;20071;-67
2021/03/19 12:16:46;;;;;;;0.40;0.38;;;;;;;;;;5083316;28;20539;-66
2021/03/19 12:19:13;;;;;;;0.80;0.60;;;;;;;;;;5082838;28;20040;-67
2021/03/19 12:21:38;;;;;;;0.30;0.30;;;;;;;;;;5082869;28;20040;-67
2021/03/19 12:24:04;;;;;;;0.85;0.40;;;;;;;;;;5083605;28;20045;-66
2021/03/19 12:26:29;;;;;;;0.68;0.45;;;;;;;;;;5082199;28;20049;-67
2021/03/19 12:28:55;;;;;;;0.95;0.60;;;;;;;;;;5081112;28;20054;-68
2021/03/19 12:31:20;;;;;;;0.77;0.40;;;;;;;;;;5075376;28;20040;-65
2021/03/19 12:33:46;;;;;;;0.70;0.50;;;;;;;;;;5082685;28;20051;-68
2021/03/19 12:36:12;;;;;;;1.15;0.50;;;;;;;;;;5083123;28;20040;-68
2021/03/19 12:38:37;;;;;;;1.30;0.40;;;;;;;;;;5064356;28;20099;-65
2021/03/19 12:41:03;;;;;;;0.25;0.25;;;;;;;;;;5082050;28;20044;-68
2021/03/19 12:43:28;;;;;;;0.60;0.30;;;;;;;;;;5074580;28;20380;-67
2021/03/19 12:45:54;;;;;;;0.63;0.30;;;;;;;;;;5082422;28;20040;-68
2021/03/19 12:48:20;;;;;;;0.63;0.47;;;;;;;;;;5062129;28;20040;-66
2021/03/19 12:50:45;;;;;;;0.75;0.50;;;;;;;;;;5064513;28;20041;-70
2021/03/19 12:53:15;;;;;;;0.75;0.50;;;;;;;;;;5082781;28;20048;-68
2021/03/19 12:55:41;;;;;;;1.17;0.40;;;;;;;;;;5083928;28;20048;-68
2021/03/19 12:58:07;;;;;;;1.30;0.50;;;;;;;;;;5085974;28;20048;-68
2021/03/19 13:00:34;;;;;;;0.40;0.40;;;;;;;;;;5084960;28;20509;-68
2021/03/19 13:02:59;;;;;;;1.05;0.57;;;;;;;;;;5084647;28;21140;-69
2021/03/19 13:05:26;;;;;;;0.57;0.40;;;;;;;;;;5076377;28;20041;-65
2021/03/19 13:07:51;;;;;;;0.30;0.30;;;;;;;;;;5086408;28;20119;-68
2021/03/19 13:10:18;;;;;;;0.77;0.32;;;;;;;;;;5081165;28;20045;-69
2021/03/19 13:12:44;;;;;;;0.30;0.30;;;;;;;;;;5086458;28;20549;-68
2021/03/19 13:15:11;;;;;;;0.47;0.38;;;;;;;;;;5067901;28;20046;-68
2021/03/19 13:17:36;;;;;;;0.50;0.40;;;;;;;;;;5079750;28;20136;-69
2021/03/19 13:20:04;;;;;;;0.40;0.40;;;;;;;;;;5088568;28;20075;-68
2021/03/19 13:22:29;;;;;;;0.65;0.50;;;;;;;;;;5080834;28;20143;-67
2021/03/19 13:24:55;;;;;;;0.40;0.40;;;;;;;;;;5086705;28;20044;-66
2021/03/19 13:27:20;;;;;;;1.15;0.30;;;;;;;;;;5085558;28;20040;-67
2021/03/19 13:29:46;;;;;;;0.40;0.40;;;;;;;;;;5084364;28;20042;-67
2021/03/19 13:32:11;;;;;;;0.60;0.40;;;;;;;;;;5084936;28;20053;-68
2021/03/19 13:34:37;;;;;;;0.60;0.30;;;;;;;;;;5086600;28;20106;-67
2021/03/19 13:37:02;;;;;;;1.13;0.38;;;;;;;;;;5087561;28;20048;-67
2021/03/19 13:39:30;;;;;;;0.43;0.40;;;;;;;;;;5067518;28;20493;-68
2021/03/19 13:41:55;;;;;;;0.30;0.30;;;;;;;;;;5086559;28;20048;-68
2021/03/19 13:44:21;;;;;;;0.52;0.40;;;;;;;;;;5087113;28;20118;-68
2021/03/19 13:46:47;;;;;;;0.60;0.30;;;;;;;;;;5085434;28;20044;-67
2021/03/19 13:49:12;;;;;;;0.73;0.28;;;;;;;;;;5085474;28;20041;-67
2021/03/19 13:51:38;;;;;;;0.35;0.35;;;;;;;;;;5086011;28;20438;-68
2021/03/19 13:54:04;;;;;;;0.63;0.30;;;;;;;;;;5079407;28;20041;-68
2021/03/19 13:56:29;;;;;;;0.38;0.20;;;;;;;;;;5085678;28;20033;-67
2021/03/19 13:58:56;;;;;;;0.52;0.30;;;;;;;;;;5085422;28;20040;-68
2021/03/19 14:01:21;;;;;;;0.35;0.22;;;;;;;;;;5077970;28;20048;-69
2021/03/19 14:03:47;;;;;;;0.40;0.40;;;;;;;;;;5085437;28;20782;-68
2021/03/19 14:06:17;;;;;;;0.90;0.50;;;;;;;;;;5083935;28;20048;-68
2021/03/19 14:08:43;;;;;;;0.68;0.40;;;;;;;;;;5085390;28;20931;-69
2021/03/19 14:11:09;;;;;;;0.30;0.30;;;;;;;;;;5085320;28;20045;-69
2021/03/19 14:13:36;;;;;;;0.75;0.40;;;;;;;;;;5084321;28;20816;-67
2021/03/19 14:16:02;;;;;;;0.22;0.22;;;;;;;;;;5084625;28;20033;-71
2021/03/19 14:18:27;;;;;;;0.95;0.30;;;;;;;;;;5085948;28;20053;-71
2021/03/19 14:20:53;;;;;;;0.65;0.30;;;;;;;;;;5086754;28;20041;-69
2021/03/19 14:23:22;;;;;;;0.20;0.20;;;;;;;;;;5076125;28;20102;-68
2021/03/19 14:25:47;;;;;;;0.30;0.30;;;;;;;;;;5084370;28;20044;-68
2021/03/19 14:28:37;;;;;;;0.30;0.30;;;;;;;;;;5086146;28;20040;-68
2021/03/19 14:31:03;;;;;;;0.45;0.40;;;;;;;;;;5085081;28;20045;-69
2021/03/19 14:33:28;;;;;;;1.13;0.35;;;;;;;;;;5086379;28;20075;-68
2021/03/19 14:35:54;;;;;;;0.30;0.20;;;;;;;;;;5085173;28;20049;-69
2021/03/19 14:38:20;;;;;;;0.47;0.40;;;;;;;;;;5085229;28;20051;-67
2021/03/19 14:40:46;;;;;;;0.85;0.43;;;;;;;;;;5084806;28;20541;-65
2021/03/19 14:43:11;;;;;;;0.60;0.47;;;;;;;;;;5085548;28;20048;-70
2021/03/19 14:45:37;;;;;;;0.82;0.45;;;;;;;;;;5082313;28;20475;-69
2021/03/19 14:48:04;;;;;;;0.65;0.30;;;;;;;;;;5063552;28;20045;-67
2021/03/19 14:50:35;;;;;;;0.38;0.35;;;;;;;;;;5075507;28;20048;-68
2021/03/19 14:53:01;;;;;;;1.35;0.50;;;;;;;;;;5075880;28;20100;-70
2021/03/19 14:55:27;;;;;;;0.52;0.52;;;;;;;;;;5085260;28;20041;-69
2021/03/19 14:57:53;;;;;;;0.50;0.40;;;;;;;;;;5082424;28;20518;-69
2021/03/19 15:00:21;;;;;;;0.50;0.40;;;;;;;;;;5082530;28;20045;-68
2021/03/19 15:02:47;;;;;;;1.67;0.50;;;;;;;;;;5083751;28;20076;-69
2021/03/19 15:05:14;;;;;;;0.40;0.40;;;;;;;;;;5085293;28;20128;-71
2021/03/19 15:07:39;;;;;;;0.65;0.50;;;;;;;;;;5083694;28;20475;-67
2021/03/19 15:10:05;;;;;;;1.17;0.55;;;;;;;;;;5083732;28;20049;-68
2021/03/19 15:12:31;;;;;;;1.02;0.60;;;;;;;;;;5083415;28;20047;-68
2021/03/19 15:14:56;;;;;;;0.57;0.50;;;;;;;;;;5083991;28;20071;-69
2021/03/19 15:17:22;;;;;;;1.90;0.80;;;;;;;;;;5061056;28;20406;-73